sensor_id;sensor_type;location;lat;lon;timestamp;pressure;altitude;pressure_sealevel;temperature;humidity
11190;BME280;5651;50.926;4.718;2023-04-19T00:01:52;102378.03;;;9.29;81.41
11190;BME280;5651;50.926;4.718;2023-04-19T00:04:17;102384.16;;;9.31;80.52
11190;BME280;5651;50.926;4.718;2023-04-19T00:06:45;102380.53;;;9.26;84.06
11190;BME280;5651;50.926;4.718;2023-04-19T00:09:12;102379.63;;;9.24;85.43
11190;BME280;5651;50.926;4.718;2023-04-19T00:11:38;102379.50;;;9.19;84.24
11190;BME280;5651;50.926;4.718;2023-04-19T00:14:04;102379.41;;;9.16;83.65
11190;BME280;5651;50.926;4.718;2023-04-19T00:16:30;102371.50;;;9.11;84.33
11190;BME280;5651;50.926;4.718;2023-04-19T00:18:55;102373.09;;;9.06;83.06
11190;BME280;5651;50.926;4.718;2023-04-19T00:21:21;102369.56;;;9.04;80.99
11190;BME280;5651;50.926;4.718;2023-04-19T00:23:47;102371.28;;;9.02;84.92
11190;BME280;5651;50.926;4.718;2023-04-19T00:26:13;102373.75;;;8.97;83.07
11190;BME280;5651;50.926;4.718;2023-04-19T00:28:40;102366.78;;;8.96;83.68
11190;BME280;5651;50.926;4.718;2023-04-19T00:31:06;102370.09;;;8.91;81.79
11190;BME280;5651;50.926;4.718;2023-04-19T00:33:32;102376.94;;;8.87;79.58
11190;BME280;5651;50.926;4.718;2023-04-19T00:35:58;102373.34;;;8.82;80.12
11190;BME280;5651;50.926;4.718;2023-04-19T00:38:24;102365.41;;;8.77;81.33
11190;BME280;5651;50.926;4.718;2023-04-19T00:40:50;102363.59;;;8.75;85.11
11190;BME280;5651;50.926;4.718;2023-04-19T00:43:18;102368.69;;;8.71;84.01
11190;BME280;5651;50.926;4.718;2023-04-19T00:45:45;102368.63;;;8.68;83.99
11190;BME280;5651;50.926;4.718;2023-04-19T00:48:12;102375.53;;;8.68;81.83
11190;BME280;5651;50.926;4.718;2023-04-19T00:50:39;102365.03;;;8.65;80.75
11190;BME280;5651;50.926;4.718;2023-04-19T00:53:06;102370.25;;;8.65;80.96
11190;BME280;5651;50.926;4.718;2023-04-19T00:55:32;102370.13;;;8.60;79.89
11190;BME280;5651;50.926;4.718;2023-04-19T00:57:58;102365.84;;;8.62;84.25
11190;BME280;5651;50.926;4.718;2023-04-19T01:00:24;102368.28;;;8.56;81.06
11190;BME280;5651;50.926;4.718;2023-04-19T01:02:50;102364.88;;;8.59;81.48
11190;BME280;5651;50.926;4.718;2023-04-19T01:05:16;102359.78;;;8.62;82.73
11190;BME280;5651;50.926;4.718;2023-04-19T01:07:43;102363.47;;;8.70;88.16
11190;BME280;5651;50.926;4.718;2023-04-19T01:10:09;102367.91;;;8.74;90.53
11190;BME280;5651;50.926;4.718;2023-04-19T01:12:35;102362.13;;;8.84;92.09
11190;BME280;5651;50.926;4.718;2023-04-19T01:15:01;102362.09;;;8.83;88.79
11190;BME280;5651;50.926;4.718;2023-04-19T01:17:28;102357.19;;;8.94;88.49
11190;BME280;5651;50.926;4.718;2023-04-19T01:20:00;102354.66;;;8.97;89.30
11190;BME280;5651;50.926;4.718;2023-04-19T01:22:26;102356.63;;;9.06;89.74
11190;BME280;5651;50.926;4.718;2023-04-19T01:24:52;102364.59;;;9.12;85.00
11190;BME280;5651;50.926;4.718;2023-04-19T01:27:18;102359.63;;;9.21;84.42
11190;BME280;5651;50.926;4.718;2023-04-19T01:29:44;102361.59;;;9.31;84.72
11190;BME280;5651;50.926;4.718;2023-04-19T01:32:10;102359.09;;;9.34;84.18
11190;BME280;5651;50.926;4.718;2023-04-19T01:34:38;102361.84;;;9.41;86.74
11190;BME280;5651;50.926;4.718;2023-04-19T01:37:04;102357.63;;;9.46;86.01
11190;BME280;5651;50.926;4.718;2023-04-19T01:39:30;102361.28;;;9.52;85.47
11190;BME280;5651;50.926;4.718;2023-04-19T01:41:56;102353.50;;;9.54;87.23
11190;BME280;5651;50.926;4.718;2023-04-19T01:44:22;102346.72;;;9.61;85.02
11190;BME280;5651;50.926;4.718;2023-04-19T01:46:48;102351.19;;;9.66;86.78
11190;BME280;5651;50.926;4.718;2023-04-19T01:49:14;102348.66;;;9.70;85.30
11190;BME280;5651;50.926;4.718;2023-04-19T01:51:40;102353.13;;;9.75;86.51
11190;BME280;5651;50.926;4.718;2023-04-19T01:54:06;102347.97;;;9.78;85.86
11190;BME280;5651;50.926;4.718;2023-04-19T01:56:32;102348.03;;;9.80;85.79
11190;BME280;5651;50.926;4.718;2023-04-19T01:58:57;102352.44;;;9.82;85.91
11190;BME280;5651;50.926;4.718;2023-04-19T02:01:23;102348.19;;;9.88;84.62
11190;BME280;5651;50.926;4.718;2023-04-19T02:03:49;102340.44;;;9.89;84.19
11190;BME280;5651;50.926;4.718;2023-04-19T02:06:15;102345.78;;;9.95;87.31
11190;BME280;5651;50.926;4.718;2023-04-19T02:08:41;102335.50;;;10.03;82.09
11190;BME280;5651;50.926;4.718;2023-04-19T02:11:08;102338.13;;;10.05;83.69
11190;BME280;5651;50.926;4.718;2023-04-19T02:13:35;102331.22;;;10.05;83.91
11190;BME280;5651;50.926;4.718;2023-04-19T02:16:01;102330.41;;;10.08;82.06
11190;BME280;5651;50.926;4.718;2023-04-19T02:18:28;102323.50;;;10.10;82.61
11190;BME280;5651;50.926;4.718;2023-04-19T02:20:54;102326.16;;;10.11;84.13
11190;BME280;5651;50.926;4.718;2023-04-19T02:23:20;102321.84;;;10.13;80.90
11190;BME280;5651;50.926;4.718;2023-04-19T02:25:46;102326.25;;;10.16;85.37
11190;BME280;5651;50.926;4.718;2023-04-19T02:28:12;102322.69;;;10.12;85.92
11190;BME280;5651;50.926;4.718;2023-04-19T02:30:38;102319.28;;;10.15;86.23
11190;BME280;5651;50.926;4.718;2023-04-19T02:33:04;102323.66;;;10.18;83.58
11190;BME280;5651;50.926;4.718;2023-04-19T02:35:30;102322.00;;;10.21;84.46
11190;BME280;5651;50.926;4.718;2023-04-19T02:37:56;102322.06;;;10.23;82.53
11190;BME280;5651;50.926;4.718;2023-04-19T02:40:21;102320.34;;;10.25;84.20
11190;BME280;5651;50.926;4.718;2023-04-19T02:42:48;102313.44;;;10.27;83.44
11190;BME280;5651;50.926;4.718;2023-04-19T02:45:14;102317.84;;;10.31;82.71
11190;BME280;5651;50.926;4.718;2023-04-19T02:47:39;102317.00;;;10.32;82.65
11190;BME280;5651;50.926;4.718;2023-04-19T02:50:06;102316.16;;;10.31;81.81
11190;BME280;5651;50.926;4.718;2023-04-19T02:52:32;102317.84;;;10.31;85.51
11190;BME280;5651;50.926;4.718;2023-04-19T02:54:57;102312.59;;;10.28;86.67
11190;BME280;5651;50.926;4.718;2023-04-19T02:57:23;102318.66;;;10.28;87.37
11190;BME280;5651;50.926;4.718;2023-04-19T02:59:49;102316.16;;;10.31;85.54
11190;BME280;5651;50.926;4.718;2023-04-19T03:02:15;102307.47;;;10.33;84.24
11190;BME280;5651;50.926;4.718;2023-04-19T03:04:41;102311.88;;;10.35;84.49
11190;BME280;5651;50.926;4.718;2023-04-19T03:07:08;102314.63;;;10.41;82.31
11190;BME280;5651;50.926;4.718;2023-04-19T03:09:34;102312.94;;;10.43;83.92
11190;BME280;5651;50.926;4.718;2023-04-19T03:12:00;102304.22;;;10.43;85.45
11190;BME280;5651;50.926;4.718;2023-04-19T03:14:26;102301.63;;;10.43;86.31
11190;BME280;5651;50.926;4.718;2023-04-19T03:16:52;102295.66;;;10.49;82.57
11190;BME280;5651;50.926;4.718;2023-04-19T03:19:18;102308.69;;;10.49;84.85
11190;BME280;5651;50.926;4.718;2023-04-19T03:21:44;102303.44;;;10.47;86.74
11190;BME280;5651;50.926;4.718;2023-04-19T03:24:10;102297.31;;;10.45;87.47
11190;BME280;5651;50.926;4.718;2023-04-19T03:26:35;102300.13;;;10.56;82.58
11190;BME280;5651;50.926;4.718;2023-04-19T03:29:01;102299.22;;;10.54;84.58
11190;BME280;5651;50.926;4.718;2023-04-19T03:31:27;102305.25;;;10.50;84.86
11190;BME280;5651;50.926;4.718;2023-04-19T03:33:53;102299.28;;;10.55;83.81
11190;BME280;5651;50.926;4.718;2023-04-19T03:36:20;102294.81;;;10.50;83.98
11190;BME280;5651;50.926;4.718;2023-04-19T03:38:46;102300.75;;;10.42;86.76
11190;BME280;5651;50.926;4.718;2023-04-19T03:41:22;102293.75;;;10.40;84.83
11190;BME280;5651;50.926;4.718;2023-04-19T03:43:52;102288.41;;;10.35;84.40
11190;BME280;5651;50.926;4.718;2023-04-19T03:46:18;102284.81;;;10.28;85.30
11190;BME280;5651;50.926;4.718;2023-04-19T03:48:43;102288.84;;;10.14;89.51
11190;BME280;5651;50.926;4.718;2023-04-19T03:51:10;102295.72;;;10.10;85.97
11190;BME280;5651;50.926;4.718;2023-04-19T03:53:35;102297.38;;;10.05;86.27
11190;BME280;5651;50.926;4.718;2023-04-19T03:56:01;102286.81;;;9.99;84.94
11190;BME280;5651;50.926;4.718;2023-04-19T03:58:27;102289.34;;;9.96;83.43
11190;BME280;5651;50.926;4.718;2023-04-19T04:00:53;102289.22;;;9.88;88.87
11190;BME280;5651;50.926;4.718;2023-04-19T04:03:19;102287.25;;;9.79;84.70
11190;BME280;5651;50.926;4.718;2023-04-19T04:05:44;102282.84;;;9.75;85.15
11190;BME280;5651;50.926;4.718;2023-04-19T04:08:10;102287.06;;;9.70;85.31
11190;BME280;5651;50.926;4.718;2023-04-19T04:10:36;102298.28;;;9.67;83.19
11190;BME280;5651;50.926;4.718;2023-04-19T04:13:02;102302.53;;;9.64;83.77
11190;BME280;5651;50.926;4.718;2023-04-19T04:15:27;102305.00;;;9.58;83.75
11190;BME280;5651;50.926;4.718;2023-04-19T04:17:53;102298.81;;;9.52;81.81
11190;BME280;5651;50.926;4.718;2023-04-19T04:20:19;102303.88;;;9.46;84.42
11190;BME280;5651;50.926;4.718;2023-04-19T04:22:45;102304.59;;;9.41;83.56
11190;BME280;5651;50.926;4.718;2023-04-19T04:25:11;102301.06;;;9.37;83.09
11190;BME280;5651;50.926;4.718;2023-04-19T04:27:38;102306.16;;;9.34;80.97
11190;BME280;5651;50.926;4.718;2023-04-19T04:30:07;102310.41;;;9.29;82.11
11190;BME280;5651;50.926;4.718;2023-04-19T04:32:33;102320.72;;;9.26;86.52
11190;BME280;5651;50.926;4.718;2023-04-19T04:35:04;102317.94;;;9.18;84.71
11190;BME280;5651;50.926;4.718;2023-04-19T04:37:35;102314.47;;;9.17;85.21
11190;BME280;5651;50.926;4.718;2023-04-19T04:40:02;102314.47;;;9.17;88.64
11190;BME280;5651;50.926;4.718;2023-04-19T04:42:31;102320.41;;;9.13;86.71
11190;BME280;5651;50.926;4.718;2023-04-19T04:44:58;102319.47;;;9.11;87.17
11190;BME280;5651;50.926;4.718;2023-04-19T04:47:32;102319.44;;;9.08;85.77
11190;BME280;5651;50.926;4.718;2023-04-19T04:49:59;102326.31;;;9.08;84.25
11190;BME280;5651;50.926;4.718;2023-04-19T04:52:27;102329.03;;;9.11;84.61
11190;BME280;5651;50.926;4.718;2023-04-19T04:54:53;102328.13;;;9.10;83.92
11190;BME280;5651;50.926;4.718;2023-04-19T04:57:18;102322.16;;;9.13;90.75
11190;BME280;5651;50.926;4.718;2023-04-19T04:59:44;102329.88;;;9.11;90.10
11190;BME280;5651;50.926;4.718;2023-04-19T05:02:13;102323.78;;;9.09;88.21
11190;BME280;5651;50.926;4.718;2023-04-19T05:04:39;102326.38;;;9.09;86.71
11190;BME280;5651;50.926;4.718;2023-04-19T05:07:05;102322.91;;;9.10;87.97
11190;BME280;5651;50.926;4.718;2023-04-19T05:09:31;102322.09;;;9.11;85.43
11190;BME280;5651;50.926;4.718;2023-04-19T05:11:57;102321.25;;;9.12;90.78
11190;BME280;5651;50.926;4.718;2023-04-19T05:14:23;102324.63;;;9.08;91.03
11190;BME280;5651;50.926;4.718;2023-04-19T05:16:49;102335.91;;;9.10;87.78
11190;BME280;5651;50.926;4.718;2023-04-19T05:19:15;102329.09;;;9.14;89.08
11190;BME280;5651;50.926;4.718;2023-04-19T05:21:40;102337.81;;;9.16;86.61
11190;BME280;5651;50.926;4.718;2023-04-19T05:24:06;102339.66;;;9.20;91.44
11190;BME280;5651;50.926;4.718;2023-04-19T05:26:34;102336.31;;;9.26;93.83
11190;BME280;5651;50.926;4.718;2023-04-19T05:29:00;102334.59;;;9.26;92.17
11190;BME280;5651;50.926;4.718;2023-04-19T05:31:26;102340.00;;;9.34;91.31
11190;BME280;5651;50.926;4.718;2023-04-19T05:33:52;102329.69;;;9.39;91.86
11190;BME280;5651;50.926;4.718;2023-04-19T05:36:18;102330.88;;;9.51;90.05
11190;BME280;5651;50.926;4.718;2023-04-19T05:38:43;102338.00;;;9.60;88.41
11190;BME280;5651;50.926;4.718;2023-04-19T05:41:09;102334.78;;;9.69;97.56
11190;BME280;5651;50.926;4.718;2023-04-19T05:43:36;102338.25;;;9.71;100.00
11190;BME280;5651;50.926;4.718;2023-04-19T05:46:02;102332.31;;;9.75;100.00
11190;BME280;5651;50.926;4.718;2023-04-19T05:48:28;102333.41;;;9.87;95.16
11190;BME280;5651;50.926;4.718;2023-04-19T05:50:53;102341.44;;;9.96;99.83
11190;BME280;5651;50.926;4.718;2023-04-19T05:53:21;102332.03;;;10.03;95.59
11190;BME280;5651;50.926;4.718;2023-04-19T05:55:47;102330.44;;;10.09;93.29
11190;BME280;5651;50.926;4.718;2023-04-19T05:58:15;102330.63;;;10.19;94.73
11190;BME280;5651;50.926;4.718;2023-04-19T06:00:41;102331.66;;;10.25;93.79
11190;BME280;5651;50.926;4.718;2023-04-19T06:03:07;102337.00;;;10.33;96.25
11190;BME280;5651;50.926;4.718;2023-04-19T06:05:33;102332.84;;;10.40;95.89
11190;BME280;5651;50.926;4.718;2023-04-19T06:07:59;102337.34;;;10.47;93.30
11190;BME280;5651;50.926;4.718;2023-04-19T06:10:25;102327.84;;;10.51;92.71
11190;BME280;5651;50.926;4.718;2023-04-19T06:12:50;102341.16;;;10.65;90.01
11190;BME280;5651;50.926;4.718;2023-04-19T06:15:16;102340.34;;;10.67;94.49
11190;BME280;5651;50.926;4.718;2023-04-19T06:17:42;102332.53;;;10.67;98.02
11190;BME280;5651;50.926;4.718;2023-04-19T06:20:08;102331.66;;;10.68;99.90
11190;BME280;5651;50.926;4.718;2023-04-19T06:22:34;102328.34;;;10.77;96.68
11190;BME280;5651;50.926;4.718;2023-04-19T06:25:06;102331.16;;;10.88;96.73
11190;BME280;5651;50.926;4.718;2023-04-19T06:27:32;102337.31;;;10.91;99.01
11190;BME280;5651;50.926;4.718;2023-04-19T06:29:58;102326.09;;;10.97;96.32
11190;BME280;5651;50.926;4.718;2023-04-19T06:32:25;102328.00;;;11.07;96.59
11190;BME280;5651;50.926;4.718;2023-04-19T06:34:51;102329.81;;;11.10;98.41
11190;BME280;5651;50.926;4.718;2023-04-19T06:37:17;102329.19;;;11.25;94.07
11190;BME280;5651;50.926;4.718;2023-04-19T06:39:43;102327.66;;;11.39;92.67
11190;BME280;5651;50.926;4.718;2023-04-19T06:42:09;102326.06;;;11.49;94.53
11190;BME280;5651;50.926;4.718;2023-04-19T06:44:34;102324.38;;;11.50;95.46
11190;BME280;5651;50.926;4.718;2023-04-19T06:47:00;102314.94;;;11.61;91.75
11190;BME280;5651;50.926;4.718;2023-04-19T06:49:26;102319.38;;;11.65;94.52
11190;BME280;5651;50.926;4.718;2023-04-19T06:51:52;102321.22;;;11.72;94.53
11190;BME280;5651;50.926;4.718;2023-04-19T06:54:18;102317.69;;;11.70;94.69
11190;BME280;5651;50.926;4.718;2023-04-19T06:56:46;102319.59;;;11.81;93.43
11190;BME280;5651;50.926;4.718;2023-04-19T06:59:17;102321.47;;;11.91;93.24
11190;BME280;5651;50.926;4.718;2023-04-19T07:01:44;102322.38;;;11.93;93.05
11190;BME280;5651;50.926;4.718;2023-04-19T07:04:12;102317.25;;;11.99;92.59
11190;BME280;5651;50.926;4.718;2023-04-19T07:06:38;102319.78;;;11.95;94.36
11190;BME280;5651;50.926;4.718;2023-04-19T07:09:05;102324.41;;;12.13;92.78
11190;BME280;5651;50.926;4.718;2023-04-19T07:11:32;102323.63;;;12.20;91.97
11190;BME280;5651;50.926;4.718;2023-04-19T07:13:57;102322.75;;;12.19;93.43
11190;BME280;5651;50.926;4.718;2023-04-19T07:16:25;102327.06;;;12.17;93.94
11190;BME280;5651;50.926;4.718;2023-04-19T07:18:51;102323.06;;;12.44;91.22
11190;BME280;5651;50.926;4.718;2023-04-19T07:21:17;102324.03;;;12.54;90.93
11190;BME280;5651;50.926;4.718;2023-04-19T07:23:43;102323.25;;;12.63;90.33
11190;BME280;5651;50.926;4.718;2023-04-19T07:26:09;102318.00;;;12.60;90.89
11190;BME280;5651;50.926;4.718;2023-04-19T07:28:35;102318.13;;;12.72;90.23
11190;BME280;5651;50.926;4.718;2023-04-19T07:31:01;102322.53;;;12.78;89.60
11190;BME280;5651;50.926;4.718;2023-04-19T07:33:27;102318.88;;;12.60;90.65
11190;BME280;5651;50.926;4.718;2023-04-19T07:35:53;102320.78;;;12.77;89.99
11190;BME280;5651;50.926;4.718;2023-04-19T07:38:20;102309.66;;;12.98;89.35
11190;BME280;5651;50.926;4.718;2023-04-19T07:40:46;102319.34;;;13.10;89.20
11190;BME280;5651;50.926;4.718;2023-04-19T07:43:12;102315.06;;;13.23;88.24
11190;BME280;5651;50.926;4.718;2023-04-19T07:45:38;102316.13;;;13.39;87.40
11190;BME280;5651;50.926;4.718;2023-04-19T07:48:04;102317.94;;;13.46;86.14
11190;BME280;5651;50.926;4.718;2023-04-19T07:50:30;102320.38;;;13.29;86.42
11190;BME280;5651;50.926;4.718;2023-04-19T07:52:56;102328.16;;;13.23;87.35
11190;BME280;5651;50.926;4.718;2023-04-19T07:55:22;102321.44;;;13.48;86.11
11190;BME280;5651;50.926;4.718;2023-04-19T07:57:48;102333.59;;;13.40;86.05
11190;BME280;5651;50.926;4.718;2023-04-19T08:00:16;102325.78;;;13.47;86.36
11190;BME280;5651;50.926;4.718;2023-04-19T08:02:46;102316.28;;;13.60;86.36
11190;BME280;5651;50.926;4.718;2023-04-19T08:05:14;102321.59;;;13.70;86.73
11190;BME280;5651;50.926;4.718;2023-04-19T08:07:43;102313.72;;;13.70;85.45
11190;BME280;5651;50.926;4.718;2023-04-19T08:10:09;102308.56;;;13.85;85.07
11190;BME280;5651;50.926;4.718;2023-04-19T08:12:35;102308.63;;;13.96;85.30
11190;BME280;5651;50.926;4.718;2023-04-19T08:15:02;102310.44;;;14.11;84.63
11190;BME280;5651;50.926;4.718;2023-04-19T08:17:28;102299.91;;;13.97;83.20
11190;BME280;5651;50.926;4.718;2023-04-19T08:19:53;102301.53;;;13.83;82.73
11190;BME280;5651;50.926;4.718;2023-04-19T08:22:20;102306.00;;;13.99;84.18
11190;BME280;5651;50.926;4.718;2023-04-19T08:24:48;102300.88;;;14.22;84.01
11190;BME280;5651;50.926;4.718;2023-04-19T08:27:14;102301.78;;;14.32;82.94
11190;BME280;5651;50.926;4.718;2023-04-19T08:29:40;102310.53;;;14.42;83.38
11190;BME280;5651;50.926;4.718;2023-04-19T08:32:06;102301.81;;;14.43;81.53
11190;BME280;5651;50.926;4.718;2023-04-19T08:34:35;102301.78;;;14.32;81.51
11190;BME280;5651;50.926;4.718;2023-04-19T08:37:02;102301.75;;;14.21;80.47
11190;BME280;5651;50.926;4.718;2023-04-19T08:39:32;102308.81;;;14.52;81.36
11190;BME280;5651;50.926;4.718;2023-04-19T08:42:05;102294.78;;;14.39;78.82
11190;BME280;5651;50.926;4.718;2023-04-19T08:44:32;102299.19;;;14.51;80.22
11190;BME280;5651;50.926;4.718;2023-04-19T08:46:58;102300.84;;;14.21;78.61
11190;BME280;5651;50.926;4.718;2023-04-19T08:49:27;102296.53;;;14.37;78.51
11190;BME280;5651;50.926;4.718;2023-04-19T08:51:54;102292.19;;;14.43;79.00
11190;BME280;5651;50.926;4.718;2023-04-19T08:54:22;102295.72;;;14.53;78.47
11190;BME280;5651;50.926;4.718;2023-04-19T08:56:48;102300.09;;;14.62;78.50
11190;BME280;5651;50.926;4.718;2023-04-19T08:59:13;102297.53;;;14.79;78.14
11190;BME280;5651;50.926;4.718;2023-04-19T09:01:40;102284.44;;;14.98;79.31
11190;BME280;5651;50.926;4.718;2023-04-19T09:04:06;102293.16;;;15.26;78.02
11190;BME280;5651;50.926;4.718;2023-04-19T09:06:39;102291.44;;;15.02;76.92
11190;BME280;5651;50.926;4.718;2023-04-19T09:09:15;102281.78;;;15.07;77.45
11190;BME280;5651;50.926;4.718;2023-04-19T09:11:42;102286.19;;;15.11;77.09
11190;BME280;5651;50.926;4.718;2023-04-19T09:14:09;102291.44;;;15.25;77.12
11190;BME280;5651;50.926;4.718;2023-04-19T09:16:35;102287.03;;;15.40;75.96
11190;BME280;5651;50.926;4.718;2023-04-19T09:19:02;102291.44;;;15.20;73.21
11190;BME280;5651;50.926;4.718;2023-04-19T09:21:29;102280.94;;;15.11;73.29
11190;BME280;5651;50.926;4.718;2023-04-19T09:23:56;102288.81;;;15.17;74.38
11190;BME280;5651;50.926;4.718;2023-04-19T09:26:22;102282.63;;;15.49;74.84
11190;BME280;5651;50.926;4.718;2023-04-19T09:28:58;102280.91;;;15.24;71.85
11190;BME280;5651;50.926;4.718;2023-04-19T09:31:26;102275.66;;;15.36;72.85
11190;BME280;5651;50.926;4.718;2023-04-19T09:33:53;102278.22;;;15.59;73.76
11190;BME280;5651;50.926;4.718;2023-04-19T09:36:30;102277.31;;;15.83;75.11
11190;BME280;5651;50.926;4.718;2023-04-19T09:38:56;102266.75;;;15.97;73.92
11190;BME280;5651;50.926;4.718;2023-04-19T09:41:23;102270.31;;;15.75;71.48
11190;BME280;5651;50.926;4.718;2023-04-19T09:43:50;102264.16;;;15.91;72.85
11190;BME280;5651;50.926;4.718;2023-04-19T09:46:32;102265.94;;;15.64;69.87
11190;BME280;5651;50.926;4.718;2023-04-19T09:49:21;102256.28;;;15.91;72.35
11190;BME280;5651;50.926;4.718;2023-04-19T09:51:53;102255.28;;;16.15;72.47
11190;BME280;5651;50.926;4.718;2023-04-19T09:54:20;102256.16;;;16.14;72.77
11190;BME280;5651;50.926;4.718;2023-04-19T09:56:47;102253.50;;;16.22;71.29
11190;BME280;5651;50.926;4.718;2023-04-19T09:59:14;102249.28;;;15.79;65.50
11190;BME280;5651;50.926;4.718;2023-04-19T10:01:47;102239.63;;;15.84;66.36
11190;BME280;5651;50.926;4.718;2023-04-19T10:04:14;102249.13;;;16.18;67.18
11190;BME280;5651;50.926;4.718;2023-04-19T10:06:48;102247.41;;;16.09;67.87
11190;BME280;5651;50.926;4.718;2023-04-19T10:09:14;102236.59;;;16.57;70.66
11190;BME280;5651;50.926;4.718;2023-04-19T10:11:42;102233.97;;;16.57;65.38
11190;BME280;5651;50.926;4.718;2023-04-19T10:14:12;102241.06;;;16.46;65.84
11190;BME280;5651;50.926;4.718;2023-04-19T10:16:38;102238.41;;;16.49;62.67
11190;BME280;5651;50.926;4.718;2023-04-19T10:19:09;102231.97;;;16.87;66.41
11190;BME280;5651;50.926;4.718;2023-04-19T10:21:36;102232.84;;;16.86;64.40
11190;BME280;5651;50.926;4.718;2023-04-19T10:24:03;102221.50;;;16.81;61.72
11190;BME280;5651;50.926;4.718;2023-04-19T10:26:29;102218.78;;;16.97;65.66
11190;BME280;5651;50.926;4.718;2023-04-19T10:28:55;102225.63;;;17.15;64.04
11190;BME280;5651;50.926;4.718;2023-04-19T10:31:24;102220.91;;;17.45;64.94
11190;BME280;5651;50.926;4.718;2023-04-19T10:33:50;102211.09;;;17.59;64.25
11190;BME280;5651;50.926;4.718;2023-04-19T10:36:17;102211.19;;;17.51;64.35
11190;BME280;5651;50.926;4.718;2023-04-19T10:38:48;102214.53;;;17.66;64.11
11190;BME280;5651;50.926;4.718;2023-04-19T10:41:17;102214.53;;;17.64;62.36
11190;BME280;5651;50.926;4.718;2023-04-19T10:48:57;102208.28;;;17.71;63.50
11190;BME280;5651;50.926;4.718;2023-04-19T10:51:27;102209.06;;;17.81;62.24
11190;BME280;5651;50.926;4.718;2023-04-19T10:54:00;102209.72;;;18.00;62.74
11190;BME280;5651;50.926;4.718;2023-04-19T11:01:37;102196.19;;;17.56;54.88
11190;BME280;5651;50.926;4.718;2023-04-19T11:04:09;102187.97;;;17.80;58.36
11190;BME280;5651;50.926;4.718;2023-04-19T11:06:55;102191.19;;;18.05;58.71
11190;BME280;5651;50.926;4.718;2023-04-19T11:12:06;102180.78;;;17.91;59.53
11190;BME280;5651;50.926;4.718;2023-04-19T11:14:56;102183.53;;;17.85;57.82
11190;BME280;5651;50.926;4.718;2023-04-19T11:17:24;102183.03;;;17.53;57.89
11190;BME280;5651;50.926;4.718;2023-04-19T11:22:40;102176.78;;;17.62;56.43
11190;BME280;5651;50.926;4.718;2023-04-19T11:25:10;102180.03;;;17.83;56.60
11190;BME280;5651;50.926;4.718;2023-04-19T11:27:38;102172.84;;;17.24;52.65
11190;BME280;5651;50.926;4.718;2023-04-19T11:30:06;102166.34;;;17.53;55.02
11190;BME280;5651;50.926;4.718;2023-04-19T11:32:32;102175.44;;;18.00;56.98
11190;BME280;5651;50.926;4.718;2023-04-19T11:35:05;102166.69;;;17.97;54.35
11190;BME280;5651;50.926;4.718;2023-04-19T11:37:36;102163.56;;;17.65;51.53
11190;BME280;5651;50.926;4.718;2023-04-19T11:40:02;102155.63;;;17.68;52.98
11190;BME280;5651;50.926;4.718;2023-04-19T11:42:29;102153.34;;;18.08;53.64
11190;BME280;5651;50.926;4.718;2023-04-19T11:44:55;102147.66;;;18.32;55.43
11190;BME280;5651;50.926;4.718;2023-04-19T11:47:23;102153.44;;;18.56;52.78
11190;BME280;5651;50.926;4.718;2023-04-19T11:49:49;102147.03;;;18.69;52.20
11190;BME280;5651;50.926;4.718;2023-04-19T11:52:23;102144.06;;;18.38;49.98
11190;BME280;5651;50.926;4.718;2023-04-19T11:54:52;102137.28;;;18.23;46.94
11190;BME280;5651;50.926;4.718;2023-04-19T11:57:28;102135.44;;;18.28;50.50
11190;BME280;5651;50.926;4.718;2023-04-19T12:00:07;102130.91;;;18.85;51.88
11190;BME280;5651;50.926;4.718;2023-04-19T12:02:38;102127.88;;;19.08;50.66
11190;BME280;5651;50.926;4.718;2023-04-19T12:05:11;102125.16;;;19.11;50.74
11190;BME280;5651;50.926;4.718;2023-04-19T12:08:04;102117.88;;;19.24;48.49
11190;BME280;5651;50.926;4.718;2023-04-19T12:10:33;102118.91;;;18.68;42.98
11190;BME280;5651;50.926;4.718;2023-04-19T12:13:00;102125.75;;;18.79;43.85
11190;BME280;5651;50.926;4.718;2023-04-19T12:15:45;102132.28;;;18.59;43.73
11190;BME280;5651;50.926;4.718;2023-04-19T12:18:11;102125.88;;;18.73;44.80
11190;BME280;5651;50.926;4.718;2023-04-19T12:20:42;102116.19;;;18.72;44.07
11190;BME280;5651;50.926;4.718;2023-04-19T12:23:08;102131.06;;;19.24;46.62
11190;BME280;5651;50.926;4.718;2023-04-19T12:25:35;102127.94;;;19.49;46.79
11190;BME280;5651;50.926;4.718;2023-04-19T12:28:02;102129.19;;;19.72;46.77
11190;BME280;5651;50.926;4.718;2023-04-19T12:30:28;102125.66;;;19.73;44.97
11190;BME280;5651;50.926;4.718;2023-04-19T12:32:54;102127.63;;;20.02;45.44
11190;BME280;5651;50.926;4.718;2023-04-19T12:35:24;102127.41;;;20.49;46.14
11190;BME280;5651;50.926;4.718;2023-04-19T12:37:52;102130.28;;;20.04;40.29
11190;BME280;5651;50.926;4.718;2023-04-19T12:40:19;102110.56;;;20.86;43.55
11190;BME280;5651;50.926;4.718;2023-04-19T12:42:45;102119.75;;;21.36;42.98
11190;BME280;5651;50.926;4.718;2023-04-19T12:45:11;102119.94;;;21.60;41.39
11190;BME280;5651;50.926;4.718;2023-04-19T12:47:38;102116.69;;;22.07;39.87
11190;BME280;5651;50.926;4.718;2023-04-19T12:50:05;102120.66;;;22.48;42.19
11190;BME280;5651;50.926;4.718;2023-04-19T12:52:31;102111.16;;;22.68;41.02
11190;BME280;5651;50.926;4.718;2023-04-19T12:54:57;102115.16;;;22.80;39.95
11190;BME280;5651;50.926;4.718;2023-04-19T12:57:23;102113.66;;;23.22;40.98
11190;BME280;5651;50.926;4.718;2023-04-19T12:59:49;102114.94;;;23.57;41.21
11190;BME280;5651;50.926;4.718;2023-04-19T13:02:15;102106.31;;;23.74;39.07
11190;BME280;5651;50.926;4.718;2023-04-19T13:04:41;102109.03;;;23.73;37.43
11190;BME280;5651;50.926;4.718;2023-04-19T13:07:07;102111.25;;;23.14;36.60
11190;BME280;5651;50.926;4.718;2023-04-19T13:09:33;102104.44;;;23.77;36.41
11190;BME280;5651;50.926;4.718;2023-04-19T13:11:59;102096.91;;;23.20;34.74
11190;BME280;5651;50.926;4.718;2023-04-19T13:14:25;102096.13;;;23.62;35.22
11190;BME280;5651;50.926;4.718;2023-04-19T13:16:51;102105.66;;;24.34;36.71
11190;BME280;5651;50.926;4.718;2023-04-19T13:19:17;102092.75;;;24.03;35.78